Hlavní strana
METAR-TAF:

METAR-TAF

Letiště :

Pago Pago, Menší odlehlé ostrovy Spojených států amerických

zeměpisná šířka: 14-20S, zeměpisná délka: 170-43W, výška: 3 m

Aktuální stav počasí

Zpráva byla vytvořena před 1 hodinou a 9 minutami, v 11:50 UTC
Jihovýchodní vítr 14 kt
Teplota 27°C
Vlhkost vzduchu 79%
Tlak 1012 hPa
Viditelnost: 16.1 km
Polojasno ve výšce 2200 ft

METAR: NSTU 251150Z 13014KT 10SM SCT022 27/23 A2987 RMK SLP113 8/100 T02680231 10274 20268 57010

Čas: 01:59 (12:59 UTC)

Předpověď počasí

Zpráva byla vytvořena před 1 hodinou a 19 minutami, v 11:40 UTC
Předpověď platná od 25 v 12 UTC do 26 v 12 UTC
Východojihovýchodní vítr 12 kt
Viditelnost: 10 km
Skoro jasno ve výšce 2000 ft
Polojasno ve výšce 4000 ft
Polojasno ve výšce 20000 ft
Od 25 v 2100 UTC
Východní vítr 15 kt
Viditelnost: 10 km
Skoro jasno ve výšce 2000 ft
Polojasno ve výšce 4000 ft
Polojasno ve výšce 20000 ft

TAF: NSTU 251140Z 2512/2612 12012KT P6SM FEW020 SCT040 SCT200 FM252100 09015KT P6SM FEW020 SCT040 SCT200

Stav a předpovědi počasí z více než 4 000 letišť (zprávy METAR a TAF).

Červené a žluté tečky na mapě představují dostupné meteorologické stanice.

Když kurzor umístíte na tečku, zobrazí se název stanice.

Pak kliknutím zobrazíte stav a předpověď počasí.

Chcete-li změnit mapu, kliknutím na zelené tlačítko se znaménkem +mapu přiblížíte, kliknutím na zelené tlačítko se znaménkem – mapu oddálíte a kliknutím na zelené šipky přejdete na sousední mapy.


METAR-TAF: